sensor_id;sensor_type;location;lat;lon;timestamp;P1;durP1;ratioP1;P2;durP2;ratioP2
75922;SDS011;64602;47.542;19.090;2023-04-06T00:02:25;7.35;;;4.78;;
75922;SDS011;64602;47.542;19.090;2023-04-06T00:07:27;8.40;;;4.83;;
75922;SDS011;64602;47.542;19.090;2023-04-06T00:12:31;10.05;;;5.25;;
75922;SDS011;64602;47.542;19.090;2023-04-06T00:17:33;11.82;;;6.28;;
75922;SDS011;64602;47.542;19.090;2023-04-06T00:22:36;10.00;;;6.20;;
75922;SDS011;64602;47.542;19.090;2023-04-06T00:27:38;12.18;;;6.22;;
75922;SDS011;64602;47.542;19.090;2023-04-06T00:32:40;10.90;;;6.05;;
75922;SDS011;64602;47.542;19.090;2023-04-06T00:37:42;12.07;;;6.53;;
75922;SDS011;64602;47.542;19.090;2023-04-06T00:42:44;12.87;;;6.83;;
75922;SDS011;64602;47.542;19.090;2023-04-06T00:47:47;13.32;;;7.50;;
75922;SDS011;64602;47.542;19.090;2023-04-06T00:52:49;13.23;;;7.20;;
75922;SDS011;64602;47.542;19.090;2023-04-06T00:57:52;14.80;;;8.03;;
75922;SDS011;64602;47.542;19.090;2023-04-06T01:02:54;13.75;;;7.35;;
75922;SDS011;64602;47.542;19.090;2023-04-06T01:07:56;15.05;;;7.72;;
75922;SDS011;64602;47.542;19.090;2023-04-06T01:12:58;13.87;;;8.23;;
75922;SDS011;64602;47.542;19.090;2023-04-06T01:18:01;13.13;;;7.05;;
75922;SDS011;64602;47.542;19.090;2023-04-06T01:23:04;13.62;;;7.30;;
75922;SDS011;64602;47.542;19.090;2023-04-06T01:28:06;12.07;;;6.90;;
75922;SDS011;64602;47.542;19.090;2023-04-06T01:33:08;13.77;;;6.83;;
75922;SDS011;64602;47.542;19.090;2023-04-06T01:38:10;11.77;;;6.53;;
75922;SDS011;64602;47.542;19.090;2023-04-06T01:43:12;11.32;;;6.07;;
75922;SDS011;64602;47.542;19.090;2023-04-06T01:48:14;12.40;;;7.07;;
75922;SDS011;64602;47.542;19.090;2023-04-06T01:53:17;11.60;;;6.97;;
75922;SDS011;64602;47.542;19.090;2023-04-06T01:58:19;9.57;;;5.75;;
75922;SDS011;64602;47.542;19.090;2023-04-06T02:03:21;12.23;;;6.33;;
75922;SDS011;64602;47.542;19.090;2023-04-06T02:08:23;14.02;;;6.68;;
75922;SDS011;64602;47.542;19.090;2023-04-06T02:13:25;11.20;;;6.50;;
75922;SDS011;64602;47.542;19.090;2023-04-06T02:18:29;13.23;;;6.17;;
75922;SDS011;64602;47.542;19.090;2023-04-06T02:23:32;10.37;;;6.30;;
75922;SDS011;64602;47.542;19.090;2023-04-06T02:28:34;13.02;;;6.40;;
75922;SDS011;64602;47.542;19.090;2023-04-06T02:33:36;13.05;;;6.30;;
75922;SDS011;64602;47.542;19.090;2023-04-06T02:38:39;12.63;;;6.53;;
75922;SDS011;64602;47.542;19.090;2023-04-06T02:43:41;10.57;;;6.20;;
75922;SDS011;64602;47.542;19.090;2023-04-06T02:48:43;10.50;;;6.43;;
75922;SDS011;64602;47.542;19.090;2023-04-06T02:53:45;12.57;;;6.20;;
75922;SDS011;64602;47.542;19.090;2023-04-06T02:58:48;11.23;;;6.62;;
75922;SDS011;64602;47.542;19.090;2023-04-06T03:03:50;12.43;;;6.12;;
75922;SDS011;64602;47.542;19.090;2023-04-06T03:08:52;14.50;;;6.93;;
75922;SDS011;64602;47.542;19.090;2023-04-06T03:13:54;14.70;;;6.73;;
75922;SDS011;64602;47.542;19.090;2023-04-06T03:18:57;13.07;;;7.15;;
75922;SDS011;64602;47.542;19.090;2023-04-06T03:23:59;15.23;;;7.82;;
75922;SDS011;64602;47.542;19.090;2023-04-06T03:29:01;13.37;;;7.63;;
75922;SDS011;64602;47.542;19.090;2023-04-06T03:34:03;14.40;;;7.70;;
75922;SDS011;64602;47.542;19.090;2023-04-06T03:39:05;15.98;;;7.72;;
75922;SDS011;64602;47.542;19.090;2023-04-06T03:44:08;18.67;;;7.93;;
75922;SDS011;64602;47.542;19.090;2023-04-06T03:49:10;14.13;;;8.23;;
75922;SDS011;64602;47.542;19.090;2023-04-06T03:54:12;17.15;;;8.23;;
75922;SDS011;64602;47.542;19.090;2023-04-06T03:59:15;16.70;;;7.23;;
75922;SDS011;64602;47.542;19.090;2023-04-06T04:04:17;19.13;;;7.70;;
75922;SDS011;64602;47.542;19.090;2023-04-06T04:09:19;16.37;;;8.30;;
75922;SDS011;64602;47.542;19.090;2023-04-06T04:14:21;15.75;;;8.80;;
75922;SDS011;64602;47.542;19.090;2023-04-06T04:19:23;13.53;;;7.23;;
75922;SDS011;64602;47.542;19.090;2023-04-06T04:24:26;15.45;;;8.32;;
75922;SDS011;64602;47.542;19.090;2023-04-06T04:29:28;18.80;;;8.63;;
75922;SDS011;64602;47.542;19.090;2023-04-06T04:34:31;21.63;;;9.07;;
75922;SDS011;64602;47.542;19.090;2023-04-06T04:39:33;13.07;;;7.57;;
75922;SDS011;64602;47.542;19.090;2023-04-06T04:44:35;16.77;;;8.02;;
75922;SDS011;64602;47.542;19.090;2023-04-06T04:49:37;12.50;;;6.80;;
75922;SDS011;64602;47.542;19.090;2023-04-06T04:54:39;13.77;;;7.00;;
75922;SDS011;64602;47.542;19.090;2023-04-06T04:59:43;13.48;;;7.12;;
75922;SDS011;64602;47.542;19.090;2023-04-06T05:04:45;13.48;;;6.62;;
75922;SDS011;64602;47.542;19.090;2023-04-06T05:09:48;10.90;;;7.03;;
75922;SDS011;64602;47.542;19.090;2023-04-06T05:14:50;13.07;;;7.10;;
75922;SDS011;64602;47.542;19.090;2023-04-06T05:19:52;12.25;;;6.03;;
75922;SDS011;64602;47.542;19.090;2023-04-06T05:24:54;12.97;;;6.73;;
75922;SDS011;64602;47.542;19.090;2023-04-06T05:29:56;13.23;;;7.87;;
75922;SDS011;64602;47.542;19.090;2023-04-06T05:34:58;13.07;;;7.32;;
75922;SDS011;64602;47.542;19.090;2023-04-06T05:40:01;15.70;;;7.53;;
75922;SDS011;64602;47.542;19.090;2023-04-06T05:45:03;14.20;;;7.43;;
75922;SDS011;64602;47.542;19.090;2023-04-06T05:50:06;14.90;;;7.22;;
75922;SDS011;64602;47.542;19.090;2023-04-06T05:55:09;13.52;;;7.00;;
75922;SDS011;64602;47.542;19.090;2023-04-06T06:00:13;13.10;;;7.07;;
75922;SDS011;64602;47.542;19.090;2023-04-06T06:05:16;14.75;;;7.97;;
75922;SDS011;64602;47.542;19.090;2023-04-06T06:10:18;14.38;;;7.60;;
75922;SDS011;64602;47.542;19.090;2023-04-06T06:15:21;12.27;;;7.40;;
75922;SDS011;64602;47.542;19.090;2023-04-06T06:20:23;15.10;;;7.53;;
75922;SDS011;64602;47.542;19.090;2023-04-06T06:25:25;17.45;;;8.35;;
75922;SDS011;64602;47.542;19.090;2023-04-06T06:30:27;14.40;;;7.53;;
75922;SDS011;64602;47.542;19.090;2023-04-06T06:35:30;13.43;;;8.50;;
75922;SDS011;64602;47.542;19.090;2023-04-06T06:40:32;15.77;;;8.45;;
75922;SDS011;64602;47.542;19.090;2023-04-06T06:45:35;11.75;;;6.95;;
75922;SDS011;64602;47.542;19.090;2023-04-06T06:50:37;14.57;;;7.80;;
75922;SDS011;64602;47.542;19.090;2023-04-06T06:55:40;13.57;;;7.93;;
75922;SDS011;64602;47.542;19.090;2023-04-06T07:00:42;11.93;;;7.53;;
75922;SDS011;64602;47.542;19.090;2023-04-06T07:05:48;13.77;;;7.53;;
75922;SDS011;64602;47.542;19.090;2023-04-06T07:10:54;16.60;;;7.68;;
75922;SDS011;64602;47.542;19.090;2023-04-06T07:15:59;12.68;;;7.15;;
75922;SDS011;64602;47.542;19.090;2023-04-06T07:21:01;12.67;;;7.53;;
75922;SDS011;64602;47.542;19.090;2023-04-06T07:26:04;15.77;;;8.13;;
75922;SDS011;64602;47.542;19.090;2023-04-06T07:31:06;11.77;;;7.32;;
75922;SDS011;64602;47.542;19.090;2023-04-06T07:36:08;14.20;;;7.37;;
75922;SDS011;64602;47.542;19.090;2023-04-06T07:41:10;12.13;;;7.30;;
75922;SDS011;64602;47.542;19.090;2023-04-06T07:46:13;15.63;;;7.10;;
75922;SDS011;64602;47.542;19.090;2023-04-06T07:51:15;12.27;;;6.53;;
75922;SDS011;64602;47.542;19.090;2023-04-06T07:56:19;11.00;;;5.72;;
75922;SDS011;64602;47.542;19.090;2023-04-06T08:01:22;11.10;;;5.93;;
75922;SDS011;64602;47.542;19.090;2023-04-06T08:06:24;11.47;;;5.17;;
75922;SDS011;64602;47.542;19.090;2023-04-06T08:11:27;12.70;;;7.20;;
75922;SDS011;64602;47.542;19.090;2023-04-06T08:16:29;10.40;;;5.97;;
75922;SDS011;64602;47.542;19.090;2023-04-06T08:21:31;13.35;;;6.70;;
75922;SDS011;64602;47.542;19.090;2023-04-06T08:26:34;14.57;;;7.30;;
75922;SDS011;64602;47.542;19.090;2023-04-06T08:31:36;17.42;;;7.32;;
75922;SDS011;64602;47.542;19.090;2023-04-06T08:36:39;13.82;;;6.18;;
75922;SDS011;64602;47.542;19.090;2023-04-06T08:41:41;10.53;;;5.23;;
75922;SDS011;64602;47.542;19.090;2023-04-06T08:46:44;9.95;;;5.55;;
75922;SDS011;64602;47.542;19.090;2023-04-06T08:51:46;9.43;;;5.43;;
75922;SDS011;64602;47.542;19.090;2023-04-06T08:56:49;10.03;;;5.30;;
75922;SDS011;64602;47.542;19.090;2023-04-06T09:01:52;9.77;;;4.87;;
75922;SDS011;64602;47.542;19.090;2023-04-06T09:06:56;9.50;;;4.78;;
75922;SDS011;64602;47.542;19.090;2023-04-06T09:11:58;9.23;;;4.80;;
75922;SDS011;64602;47.542;19.090;2023-04-06T09:17:07;10.13;;;4.73;;
75922;SDS011;64602;47.542;19.090;2023-04-06T09:22:09;10.18;;;4.40;;
75922;SDS011;64602;47.542;19.090;2023-04-06T09:27:12;9.20;;;5.35;;
75922;SDS011;64602;47.542;19.090;2023-04-06T09:32:15;9.80;;;5.00;;
75922;SDS011;64602;47.542;19.090;2023-04-06T09:37:19;10.93;;;5.30;;
75922;SDS011;64602;47.542;19.090;2023-04-06T09:42:24;11.18;;;5.53;;
75922;SDS011;64602;47.542;19.090;2023-04-06T09:47:27;10.43;;;4.70;;
75922;SDS011;64602;47.542;19.090;2023-04-06T09:52:32;8.37;;;4.97;;
75922;SDS011;64602;47.542;19.090;2023-04-06T10:03:19;9.05;;;5.53;;
75922;SDS011;64602;47.542;19.090;2023-04-06T10:08:28;11.83;;;5.33;;
75922;SDS011;64602;47.542;19.090;2023-04-06T10:13:34;11.38;;;5.70;;
75922;SDS011;64602;47.542;19.090;2023-04-06T10:18:37;10.18;;;5.43;;
75922;SDS011;64602;47.542;19.090;2023-04-06T10:23:51;9.40;;;4.63;;
75922;SDS011;64602;47.542;19.090;2023-04-06T10:29:01;8.32;;;5.20;;
75922;SDS011;64602;47.542;19.090;2023-04-06T10:34:05;9.02;;;4.90;;
75922;SDS011;64602;47.542;19.090;2023-04-06T10:39:07;7.33;;;4.70;;
75922;SDS011;64602;47.542;19.090;2023-04-06T10:44:22;8.37;;;4.87;;
75922;SDS011;64602;47.542;19.090;2023-04-06T10:49:26;11.48;;;4.40;;
75922;SDS011;64602;47.542;19.090;2023-04-06T10:54:28;10.05;;;4.95;;
75922;SDS011;64602;47.542;19.090;2023-04-06T10:59:31;10.67;;;4.30;;
75922;SDS011;64602;47.542;19.090;2023-04-06T11:04:33;8.32;;;4.30;;
75922;SDS011;64602;47.542;19.090;2023-04-06T11:09:36;10.02;;;4.45;;
75922;SDS011;64602;47.542;19.090;2023-04-06T11:14:38;9.97;;;4.50;;
75922;SDS011;64602;47.542;19.090;2023-04-06T11:19:40;9.30;;;4.68;;
75922;SDS011;64602;47.542;19.090;2023-04-06T11:24:43;8.73;;;4.80;;
75922;SDS011;64602;47.542;19.090;2023-04-06T11:29:45;7.90;;;4.67;;
75922;SDS011;64602;47.542;19.090;2023-04-06T11:34:51;7.70;;;4.40;;
75922;SDS011;64602;47.542;19.090;2023-04-06T11:39:54;8.73;;;4.47;;
75922;SDS011;64602;47.542;19.090;2023-04-06T11:44:59;9.00;;;4.57;;
75922;SDS011;64602;47.542;19.090;2023-04-06T11:50:05;9.07;;;4.47;;
75922;SDS011;64602;47.542;19.090;2023-04-06T11:55:17;11.65;;;4.85;;
75922;SDS011;64602;47.542;19.090;2023-04-06T12:00:20;10.23;;;4.57;;
75922;SDS011;64602;47.542;19.090;2023-04-06T12:05:23;7.40;;;4.47;;
75922;SDS011;64602;47.542;19.090;2023-04-06T12:10:26;7.93;;;4.68;;
75922;SDS011;64602;47.542;19.090;2023-04-06T12:15:28;10.20;;;5.40;;
75922;SDS011;64602;47.542;19.090;2023-04-06T12:20:31;10.03;;;4.37;;
75922;SDS011;64602;47.542;19.090;2023-04-06T12:25:33;7.83;;;4.60;;
75922;SDS011;64602;47.542;19.090;2023-04-06T12:30:35;8.85;;;4.70;;
75922;SDS011;64602;47.542;19.090;2023-04-06T12:35:37;8.63;;;4.43;;
75922;SDS011;64602;47.542;19.090;2023-04-06T12:40:40;6.47;;;4.13;;
75922;SDS011;64602;47.542;19.090;2023-04-06T12:45:42;6.87;;;4.68;;
75922;SDS011;64602;47.542;19.090;2023-04-06T12:50:44;10.93;;;4.90;;
75922;SDS011;64602;47.542;19.090;2023-04-06T12:55:56;8.10;;;4.40;;
75922;SDS011;64602;47.542;19.090;2023-04-06T13:00:59;6.97;;;4.65;;
75922;SDS011;64602;47.542;19.090;2023-04-06T13:06:04;9.85;;;4.82;;
75922;SDS011;64602;47.542;19.090;2023-04-06T13:11:07;8.10;;;4.73;;
75922;SDS011;64602;47.542;19.090;2023-04-06T13:16:12;9.03;;;4.40;;
75922;SDS011;64602;47.542;19.090;2023-04-06T13:21:14;9.38;;;4.65;;
75922;SDS011;64602;47.542;19.090;2023-04-06T13:26:18;7.07;;;4.60;;
75922;SDS011;64602;47.542;19.090;2023-04-06T13:31:20;6.17;;;3.90;;
75922;SDS011;64602;47.542;19.090;2023-04-06T13:36:22;9.00;;;4.53;;
75922;SDS011;64602;47.542;19.090;2023-04-06T13:41:24;7.53;;;3.78;;
75922;SDS011;64602;47.542;19.090;2023-04-06T13:46:28;5.90;;;3.80;;
75922;SDS011;64602;47.542;19.090;2023-04-06T13:51:30;7.62;;;4.00;;
75922;SDS011;64602;47.542;19.090;2023-04-06T13:56:32;8.02;;;3.97;;
75922;SDS011;64602;47.542;19.090;2023-04-06T14:01:35;6.47;;;3.70;;
75922;SDS011;64602;47.542;19.090;2023-04-06T14:06:37;6.80;;;3.70;;
75922;SDS011;64602;47.542;19.090;2023-04-06T14:11:39;7.65;;;3.55;;
75922;SDS011;64602;47.542;19.090;2023-04-06T14:16:41;6.50;;;3.47;;
75922;SDS011;64602;47.542;19.090;2023-04-06T14:21:46;8.03;;;3.77;;
75922;SDS011;64602;47.542;19.090;2023-04-06T14:26:48;5.62;;;3.42;;
75922;SDS011;64602;47.542;19.090;2023-04-06T14:31:50;6.03;;;3.70;;
75922;SDS011;64602;47.542;19.090;2023-04-06T14:36:52;7.03;;;3.37;;
75922;SDS011;64602;47.542;19.090;2023-04-06T14:41:55;7.12;;;3.80;;
75922;SDS011;64602;47.542;19.090;2023-04-06T14:46:57;6.45;;;3.55;;
75922;SDS011;64602;47.542;19.090;2023-04-06T14:51:59;7.03;;;3.93;;
75922;SDS011;64602;47.542;19.090;2023-04-06T14:57:01;7.27;;;3.80;;
75922;SDS011;64602;47.542;19.090;2023-04-06T15:02:04;7.20;;;3.55;;
75922;SDS011;64602;47.542;19.090;2023-04-06T15:07:06;7.93;;;3.80;;
75922;SDS011;64602;47.542;19.090;2023-04-06T15:12:08;6.43;;;3.90;;
75922;SDS011;64602;47.542;19.090;2023-04-06T15:17:10;7.10;;;3.75;;
75922;SDS011;64602;47.542;19.090;2023-04-06T15:22:12;5.85;;;3.80;;
75922;SDS011;64602;47.542;19.090;2023-04-06T15:27:14;10.37;;;4.87;;
75922;SDS011;64602;47.542;19.090;2023-04-06T15:32:17;6.32;;;3.72;;
75922;SDS011;64602;47.542;19.090;2023-04-06T15:37:19;8.68;;;4.60;;
75922;SDS011;64602;47.542;19.090;2023-04-06T15:42:21;8.63;;;4.30;;
75922;SDS011;64602;47.542;19.090;2023-04-06T15:47:23;7.40;;;4.40;;
75922;SDS011;64602;47.542;19.090;2023-04-06T15:52:25;8.75;;;4.82;;
75922;SDS011;64602;47.542;19.090;2023-04-06T15:57:28;9.73;;;4.47;;
75922;SDS011;64602;47.542;19.090;2023-04-06T16:02:31;8.40;;;4.57;;
75922;SDS011;64602;47.542;19.090;2023-04-06T16:07:33;9.77;;;4.70;;
75922;SDS011;64602;47.542;19.090;2023-04-06T16:12:36;8.30;;;4.28;;
75922;SDS011;64602;47.542;19.090;2023-04-06T16:17:38;8.10;;;4.70;;
75922;SDS011;64602;47.542;19.090;2023-04-06T16:22:41;8.48;;;4.40;;
75922;SDS011;64602;47.542;19.090;2023-04-06T16:27:43;8.40;;;4.53;;
75922;SDS011;64602;47.542;19.090;2023-04-06T16:32:45;7.47;;;4.53;;
75922;SDS011;64602;47.542;19.090;2023-04-06T16:37:50;8.60;;;5.00;;
75922;SDS011;64602;47.542;19.090;2023-04-06T16:42:52;10.40;;;5.15;;
75922;SDS011;64602;47.542;19.090;2023-04-06T16:47:56;10.10;;;5.20;;
75922;SDS011;64602;47.542;19.090;2023-04-06T16:52:58;8.10;;;5.40;;
75922;SDS011;64602;47.542;19.090;2023-04-06T16:58:00;9.68;;;5.55;;
75922;SDS011;64602;47.542;19.090;2023-04-06T17:03:03;9.10;;;5.32;;
75922;SDS011;64602;47.542;19.090;2023-04-06T17:08:05;10.30;;;5.93;;
75922;SDS011;64602;47.542;19.090;2023-04-06T17:13:07;9.52;;;6.03;;
75922;SDS011;64602;47.542;19.090;2023-04-06T17:18:09;12.70;;;6.90;;
75922;SDS011;64602;47.542;19.090;2023-04-06T17:23:12;10.00;;;6.20;;
75922;SDS011;64602;47.542;19.090;2023-04-06T17:28:15;9.77;;;6.23;;
75922;SDS011;64602;47.542;19.090;2023-04-06T17:33:17;10.05;;;5.90;;
75922;SDS011;64602;47.542;19.090;2023-04-06T17:38:19;10.13;;;6.50;;
75922;SDS011;64602;47.542;19.090;2023-04-06T17:43:22;11.07;;;6.73;;
75922;SDS011;64602;47.542;19.090;2023-04-06T17:48:24;12.63;;;7.03;;
75922;SDS011;64602;47.542;19.090;2023-04-06T17:53:28;12.15;;;7.75;;
75922;SDS011;64602;47.542;19.090;2023-04-06T17:58:35;13.40;;;7.97;;
75922;SDS011;64602;47.542;19.090;2023-04-06T18:03:37;12.00;;;7.43;;
75922;SDS011;64602;47.542;19.090;2023-04-06T18:08:40;12.93;;;8.95;;
75922;SDS011;64602;47.542;19.090;2023-04-06T18:13:43;16.77;;;9.33;;
75922;SDS011;64602;47.542;19.090;2023-04-06T18:18:46;17.83;;;9.80;;
75922;SDS011;64602;47.542;19.090;2023-04-06T18:23:48;16.85;;;10.15;;
75922;SDS011;64602;47.542;19.090;2023-04-06T18:28:50;15.98;;;9.73;;
75922;SDS011;64602;47.542;19.090;2023-04-06T18:33:52;16.73;;;10.63;;
75922;SDS011;64602;47.542;19.090;2023-04-06T18:38:55;18.65;;;11.07;;
75922;SDS011;64602;47.542;19.090;2023-04-06T18:43:57;19.73;;;11.18;;
75922;SDS011;64602;47.542;19.090;2023-04-06T18:48:59;17.73;;;10.30;;
75922;SDS011;64602;47.542;19.090;2023-04-06T18:54:04;18.90;;;11.20;;
75922;SDS011;64602;47.542;19.090;2023-04-06T18:59:07;18.60;;;11.15;;
75922;SDS011;64602;47.542;19.090;2023-04-06T19:04:09;17.57;;;10.80;;
75922;SDS011;64602;47.542;19.090;2023-04-06T19:09:12;15.73;;;10.57;;
75922;SDS011;64602;47.542;19.090;2023-04-06T19:14:14;18.70;;;10.90;;
75922;SDS011;64602;47.542;19.090;2023-04-06T19:19:17;17.52;;;11.48;;
75922;SDS011;64602;47.542;19.090;2023-04-06T19:24:19;17.93;;;10.77;;
75922;SDS011;64602;47.542;19.090;2023-04-06T19:29:21;19.45;;;11.82;;
75922;SDS011;64602;47.542;19.090;2023-04-06T19:34:24;18.15;;;11.05;;
75922;SDS011;64602;47.542;19.090;2023-04-06T19:39:27;20.10;;;11.07;;
75922;SDS011;64602;47.542;19.090;2023-04-06T19:44:30;18.95;;;11.60;;
75922;SDS011;64602;47.542;19.090;2023-04-06T19:49:32;21.08;;;11.90;;
75922;SDS011;64602;47.542;19.090;2023-04-06T19:54:35;18.53;;;11.00;;
75922;SDS011;64602;47.542;19.090;2023-04-06T19:59:39;19.73;;;12.03;;
75922;SDS011;64602;47.542;19.090;2023-04-06T20:04:42;20.23;;;12.70;;
